createdAt,value
2022-12-29T00:01:54.592Z,3.42
2022-12-29T00:04:58.331Z,2.83
2022-12-29T00:08:01.565Z,3.70
2022-12-29T00:11:05.297Z,2.73
2022-12-29T00:14:29.434Z,3.28
2022-12-29T00:17:33.022Z,2.65
2022-12-29T00:20:56.040Z,4.00
2022-12-29T00:24:28.550Z,3.00
2022-12-29T00:27:51.318Z,4.27
2022-12-29T00:31:14.021Z,4.30
2022-12-29T00:34:35.777Z,2.67
2022-12-29T00:38:00.885Z,4.43
2022-12-29T00:41:23.015Z,3.95
2022-12-29T00:44:26.914Z,4.70
2022-12-29T00:47:30.443Z,4.15
2022-12-29T00:50:34.342Z,4.32
2022-12-29T00:53:37.533Z,3.40
2022-12-29T00:56:41.363Z,3.92
2022-12-29T00:59:44.854Z,4.10
2022-12-29T01:02:48.670Z,3.35
2022-12-29T01:05:53.510Z,2.60
2022-12-29T01:09:16.002Z,3.53
2022-12-29T01:12:39.639Z,2.72
2022-12-29T01:15:51.562Z,2.77
2022-12-29T01:18:54.930Z,4.78
2022-12-29T01:21:58.606Z,4.28
2022-12-29T01:25:01.817Z,5.20
2022-12-29T01:28:05.426Z,4.75
2022-12-29T01:31:14.357Z,3.97
2022-12-29T01:34:18.544Z,3.65
2022-12-29T01:37:21.958Z,3.92
2022-12-29T01:40:26.463Z,3.55
2022-12-29T01:43:48.915Z,3.37
2022-12-29T01:46:53.429Z,2.15
2022-12-29T01:50:00.353Z,3.53
2022-12-29T01:53:11.167Z,3.30
2022-12-29T01:56:18.041Z,3.92
2022-12-29T01:59:26.354Z,3.23
2022-12-29T02:02:33.154Z,4.80
2022-12-29T02:05:52.104Z,4.60
2022-12-29T02:08:57.701Z,5.20
2022-12-29T02:12:02.431Z,4.75
2022-12-29T02:15:06.731Z,4.53
2022-12-29T02:18:34.943Z,4.97
2022-12-29T02:22:10.086Z,5.00
2022-12-29T02:25:53.204Z,4.12
2022-12-29T02:29:21.304Z,4.05
2022-12-29T02:32:45.519Z,5.40
2022-12-29T02:36:16.173Z,4.82
2022-12-29T02:39:28.452Z,4.82
2022-12-29T02:42:56.038Z,4.87
2022-12-29T02:46:30.563Z,2.60
2022-12-29T02:49:49.919Z,3.63
2022-12-29T02:53:01.579Z,3.20
2022-12-29T02:56:05.370Z,3.70
2022-12-29T02:59:09.810Z,4.05
2022-12-29T03:02:46.123Z,3.90
2022-12-29T03:06:32.288Z,3.80
2022-12-29T03:10:01.531Z,3.87
2022-12-29T03:13:36.681Z,4.50
2022-12-29T03:16:57.259Z,4.57
2022-12-29T03:20:07.544Z,4.37
2022-12-29T03:23:13.128Z,4.80
2022-12-29T03:26:20.215Z,4.07
2022-12-29T03:29:25.110Z,2.72
2022-12-29T03:33:01.417Z,4.82
2022-12-29T03:36:12.110Z,4.68
2022-12-29T03:39:15.612Z,5.20
2022-12-29T03:42:25.139Z,5.57
2022-12-29T03:45:28.486Z,5.07
2022-12-29T03:49:35.541Z,5.60
2022-12-29T03:52:40.198Z,6.40
2022-12-29T03:55:43.477Z,5.67
2022-12-29T03:58:46.978Z,5.23
2022-12-29T04:01:50.666Z,4.47
2022-12-29T04:04:54.131Z,4.78
2022-12-29T04:07:57.118Z,5.05
2022-12-29T04:11:00.508Z,5.47
2022-12-29T04:14:03.526Z,5.45
2022-12-29T04:17:07.420Z,5.03
2022-12-29T04:20:46.381Z,4.00
2022-12-29T04:23:50.027Z,5.00
2022-12-29T04:26:53.319Z,4.90
2022-12-29T04:29:57.451Z,6.40
2022-12-29T04:33:00.676Z,4.95
2022-12-29T04:36:04.900Z,7.35
2022-12-29T04:39:08.631Z,5.90
2022-12-29T04:42:12.222Z,7.13
2022-12-29T04:45:16.039Z,7.93
2022-12-29T04:48:19.534Z,5.20
2022-12-29T04:51:22.547Z,7.47
2022-12-29T04:54:26.308Z,7.03
2022-12-29T04:57:31.056Z,5.97
2022-12-29T05:00:35.574Z,7.27
2022-12-29T05:03:38.734Z,7.68
2022-12-29T05:06:42.148Z,5.85
2022-12-29T05:09:45.552Z,6.22
2022-12-29T05:12:49.313Z,5.80
2022-12-29T05:15:54.228Z,6.78
2022-12-29T05:18:58.236Z,6.35
2022-12-29T05:22:01.527Z,4.12
2022-12-29T05:25:06.296Z,4.37
2022-12-29T05:28:10.299Z,3.53
2022-12-29T05:31:14.436Z,7.47
2022-12-29T05:34:17.619Z,7.22
2022-12-29T05:37:22.001Z,6.15
2022-12-29T05:40:25.387Z,5.30
2022-12-29T05:43:30.683Z,6.43
2022-12-29T05:46:35.014Z,5.78
2022-12-29T05:49:38.754Z,8.45
2022-12-29T05:52:41.995Z,6.95
2022-12-29T05:55:48.727Z,7.07
2022-12-29T05:58:52.397Z,6.97
2022-12-29T06:01:55.752Z,6.43
2022-12-29T06:04:59.266Z,7.53
2022-12-29T06:08:02.447Z,5.37
2022-12-29T06:11:06.944Z,5.65
2022-12-29T06:14:10.543Z,5.03
2022-12-29T06:17:14.280Z,3.60
2022-12-29T06:20:17.424Z,6.00
2022-12-29T06:23:21.048Z,5.07
2022-12-29T06:26:24.361Z,7.97
2022-12-29T06:29:27.817Z,6.93
2022-12-29T06:32:31.947Z,4.97
2022-12-29T06:35:36.918Z,6.07
2022-12-29T06:38:40.491Z,5.12
2022-12-29T06:41:44.286Z,9.13
2022-12-29T06:44:48.029Z,5.67
2022-12-29T06:47:51.397Z,7.03
2022-12-29T06:50:54.559Z,9.10
2022-12-29T06:53:58.277Z,8.68
2022-12-29T06:57:01.484Z,8.00
2022-12-29T07:00:06.364Z,10.03
2022-12-29T07:03:10.251Z,6.03
2022-12-29T07:06:14.474Z,7.62
2022-12-29T07:09:17.697Z,7.35
2022-12-29T07:12:21.000Z,7.35
2022-12-29T07:15:24.281Z,9.53
2022-12-29T07:18:27.603Z,7.80
2022-12-29T07:21:30.694Z,8.65
2022-12-29T07:24:34.261Z,5.30
2022-12-29T07:27:37.249Z,6.30
2022-12-29T07:30:40.835Z,10.60
2022-12-29T07:33:44.745Z,10.02
2022-12-29T07:36:48.212Z,8.25
2022-12-29T07:39:51.028Z,9.50
2022-12-29T07:42:54.286Z,7.07
2022-12-29T07:46:02.363Z,9.13
2022-12-29T07:49:05.645Z,6.07
2022-12-29T07:52:08.617Z,9.73
2022-12-29T07:55:12.051Z,6.40
2022-12-29T07:58:15.500Z,10.10
2022-12-29T08:01:19.334Z,8.33
2022-12-29T08:04:22.920Z,6.13
2022-12-29T08:07:27.071Z,10.13
2022-12-29T08:10:30.441Z,9.70
2022-12-29T08:13:33.975Z,6.70
2022-12-29T08:16:37.527Z,7.93
2022-12-29T08:19:40.450Z,8.00
2022-12-29T08:22:43.681Z,8.73
2022-12-29T08:33:22.445Z,7.37
2022-12-29T08:36:25.513Z,9.33
2022-12-29T08:39:28.925Z,5.62
2022-12-29T08:42:33.334Z,9.50
2022-12-29T08:45:36.604Z,6.15
2022-12-29T08:48:40.062Z,7.47
2022-12-29T08:51:43.360Z,10.90
2022-12-29T08:54:46.684Z,7.03
2022-12-29T08:57:50.512Z,7.03
2022-12-29T09:00:58.522Z,8.23
2022-12-29T09:04:15.057Z,6.83
2022-12-29T09:07:19.843Z,9.30
2022-12-29T09:10:23.014Z,9.98
2022-12-29T09:13:26.325Z,7.78
2022-12-29T09:16:29.665Z,5.30
2022-12-29T09:19:33.318Z,9.33
2022-12-29T09:22:37.736Z,7.17
2022-12-29T09:25:41.092Z,9.85
2022-12-29T09:28:45.640Z,7.95
2022-12-29T09:31:49.187Z,7.62
2022-12-29T09:34:52.312Z,7.37
2022-12-29T09:37:55.809Z,8.83
2022-12-29T09:41:12.135Z,8.90
2022-12-29T09:44:15.509Z,7.95
2022-12-29T09:47:21.871Z,6.70
2022-12-29T09:50:31.228Z,8.93
2022-12-29T09:53:45.917Z,5.20
2022-12-29T09:56:51.138Z,8.85
2022-12-29T10:00:06.158Z,11.43
2022-12-29T10:03:17.011Z,5.93
2022-12-29T10:06:28.405Z,7.77
2022-12-29T10:09:43.841Z,10.53
2022-12-29T10:13:23.120Z,10.32
2022-12-29T10:16:39.737Z,7.75
2022-12-29T10:20:13.619Z,8.43
2022-12-29T10:23:29.989Z,9.73
2022-12-29T10:26:40.925Z,8.80
2022-12-29T10:29:54.613Z,7.97
2022-12-29T10:33:05.808Z,9.48
2022-12-29T10:36:22.894Z,7.87
2022-12-29T10:39:38.369Z,7.83
2022-12-29T10:42:46.564Z,9.40
2022-12-29T10:45:50.390Z,9.68
2022-12-29T10:48:54.317Z,10.88
2022-12-29T10:52:01.634Z,9.45
2022-12-29T10:55:07.218Z,7.63
2022-12-29T10:58:14.827Z,7.53
2022-12-29T11:01:19.720Z,11.52
2022-12-29T11:05:00.599Z,9.23
2022-12-29T11:08:10.057Z,10.32
2022-12-29T11:11:13.557Z,9.37
2022-12-29T11:14:22.582Z,9.00
2022-12-29T11:17:25.762Z,9.48
2022-12-29T11:20:36.124Z,11.20
2022-12-29T11:23:43.214Z,10.47
2022-12-29T11:26:46.411Z,13.17
2022-12-29T11:29:54.901Z,10.40
2022-12-29T11:32:59.499Z,6.75
2022-12-29T11:36:16.667Z,7.20
2022-12-29T11:39:40.746Z,8.00
2022-12-29T11:42:57.430Z,11.23
2022-12-29T11:46:04.985Z,10.65
2022-12-29T11:49:20.275Z,9.70
2022-12-29T11:52:26.185Z,10.05
2022-12-29T11:55:30.896Z,9.07
2022-12-29T11:58:37.829Z,10.13
2022-12-29T12:01:43.081Z,10.32
2022-12-29T12:04:46.945Z,10.35
2022-12-29T12:08:03.381Z,6.97
2022-12-29T12:11:29.764Z,9.73
2022-12-29T12:14:48.009Z,8.23
2022-12-29T12:18:01.694Z,9.15
2022-12-29T12:21:16.700Z,10.50
2022-12-29T12:24:37.647Z,10.20
2022-12-29T12:27:50.476Z,9.60
2022-12-29T12:30:59.224Z,10.13
2022-12-29T12:34:07.606Z,10.63
2022-12-29T12:37:49.584Z,10.45
2022-12-29T12:41:21.359Z,11.25
2022-12-29T12:44:39.429Z,10.23
2022-12-29T12:48:02.527Z,6.90
2022-12-29T12:51:28.625Z,10.65
2022-12-29T12:54:52.496Z,10.13
2022-12-29T12:58:09.409Z,11.10
2022-12-29T13:01:15.807Z,10.37
2022-12-29T13:04:48.051Z,8.70
2022-12-29T13:08:04.126Z,11.73
2022-12-29T13:11:15.781Z,11.05
2022-12-29T13:14:40.529Z,11.80
2022-12-29T13:18:01.824Z,9.60
2022-12-29T13:21:18.838Z,10.50
2022-12-29T13:24:25.327Z,9.77
2022-12-29T13:27:55.075Z,11.60
2022-12-29T13:31:35.923Z,13.23
2022-12-29T13:34:45.407Z,11.30
2022-12-29T13:37:55.831Z,12.07
2022-12-29T13:41:05.089Z,13.10
2022-12-29T13:44:16.275Z,12.48
2022-12-29T13:47:39.531Z,12.73
2022-12-29T13:50:46.710Z,12.17
2022-12-29T13:53:58.538Z,12.63
2022-12-29T13:57:25.809Z,11.45
2022-12-29T14:00:39.567Z,14.85
2022-12-29T14:03:50.689Z,14.30
2022-12-29T14:07:14.584Z,12.97
2022-12-29T14:10:37.673Z,17.03
2022-12-29T14:13:44.237Z,16.50
2022-12-29T14:16:47.530Z,21.58
2022-12-29T14:19:55.294Z,11.77
2022-12-29T14:23:21.540Z,11.87
2022-12-29T14:26:44.566Z,12.33
2022-12-29T14:29:52.112Z,13.23
2022-12-29T14:33:15.782Z,13.52
2022-12-29T14:36:22.179Z,12.95
2022-12-29T14:39:36.273Z,13.33
2022-12-29T14:42:41.602Z,12.97
2022-12-29T14:45:49.822Z,13.68
2022-12-29T14:49:00.052Z,15.75
2022-12-29T14:52:18.902Z,18.35
2022-12-29T14:55:53.516Z,22.10
2022-12-29T14:58:58.803Z,18.53
2022-12-29T15:02:14.059Z,20.55
2022-12-29T15:05:54.326Z,17.05
2022-12-29T15:09:07.663Z,15.65
2022-12-29T15:12:42.780Z,18.27
2022-12-29T15:15:46.875Z,20.33
2022-12-29T15:18:50.094Z,24.83
2022-12-29T15:21:55.737Z,21.87
2022-12-29T15:24:59.459Z,17.85
2022-12-29T15:28:05.701Z,18.80
2022-12-29T15:31:17.515Z,22.37
2022-12-29T15:34:22.576Z,26.67
2022-12-29T15:37:34.852Z,23.15
2022-12-29T15:40:38.176Z,27.55
2022-12-29T15:44:16.344Z,24.40
2022-12-29T15:47:24.465Z,29.37
2022-12-29T15:50:32.591Z,38.28
2022-12-29T15:53:35.813Z,42.83
2022-12-29T15:56:38.692Z,44.55
2022-12-29T15:59:48.377Z,54.40
2022-12-29T16:02:51.438Z,48.67
2022-12-29T16:05:57.614Z,94.70
2022-12-29T16:09:04.269Z,42.03
2022-12-29T16:12:17.930Z,28.12
2022-12-29T16:15:21.236Z,41.27
2022-12-29T16:18:38.716Z,55.53
2022-12-29T16:21:43.296Z,49.47
2022-12-29T16:24:47.070Z,40.50
2022-12-29T16:27:50.628Z,38.33
2022-12-29T16:31:08.247Z,43.30
2022-12-29T16:34:25.584Z,35.88
2022-12-29T16:37:30.743Z,35.17
2022-12-29T16:40:34.135Z,38.08
2022-12-29T16:43:43.138Z,38.88
2022-12-29T16:47:12.372Z,33.13
2022-12-29T16:50:28.279Z,32.47
2022-12-29T16:53:48.522Z,32.85
2022-12-29T16:56:53.286Z,33.38
2022-12-29T17:00:02.464Z,32.53
2022-12-29T17:03:09.025Z,32.70
2022-12-29T17:06:20.998Z,33.20
2022-12-29T17:09:31.633Z,33.78
2022-12-29T17:12:38.615Z,37.65
2022-12-29T17:15:45.019Z,34.53
2022-12-29T17:18:50.550Z,36.60
2022-12-29T17:21:54.900Z,38.40
2022-12-29T17:25:00.838Z,36.72
2022-12-29T17:28:23.915Z,37.22
2022-12-29T17:31:26.937Z,36.92
2022-12-29T17:34:31.191Z,37.60
2022-12-29T17:37:37.274Z,35.42
2022-12-29T17:40:40.574Z,37.13
2022-12-29T17:43:43.771Z,35.53
2022-12-29T17:46:49.296Z,36.55
2022-12-29T17:49:52.283Z,36.90
2022-12-29T17:53:01.192Z,36.47
2022-12-29T17:56:04.392Z,36.45
2022-12-29T17:59:14.361Z,34.30
2022-12-29T18:02:26.916Z,33.13
2022-12-29T18:05:31.758Z,37.60
2022-12-29T18:08:39.191Z,37.60
2022-12-29T18:11:44.152Z,39.35
2022-12-29T18:14:47.041Z,40.22
2022-12-29T18:17:55.198Z,42.53
2022-12-29T18:21:00.781Z,42.63
2022-12-29T18:24:04.285Z,47.47
2022-12-29T18:27:17.977Z,49.35
2022-12-29T18:30:21.561Z,57.22
2022-12-29T18:33:26.668Z,62.13
2022-12-29T18:36:30.603Z,57.77
2022-12-29T18:39:34.208Z,57.47
2022-12-29T18:42:37.692Z,54.58
2022-12-29T18:45:40.840Z,55.25
2022-12-29T18:48:44.345Z,53.87
2022-12-29T18:51:48.204Z,52.80
2022-12-29T18:54:51.377Z,55.30
2022-12-29T18:57:54.679Z,51.30
2022-12-29T19:00:58.000Z,43.72
2022-12-29T19:04:01.107Z,45.95
2022-12-29T19:07:04.779Z,47.00
2022-12-29T19:10:08.173Z,45.53
2022-12-29T19:13:20.908Z,44.92
2022-12-29T19:16:25.413Z,41.20
2022-12-29T19:19:29.190Z,39.75
2022-12-29T19:22:32.149Z,41.50
2022-12-29T19:25:35.853Z,39.55
2022-12-29T19:28:38.871Z,36.40
2022-12-29T19:31:42.808Z,35.38
2022-12-29T19:34:48.992Z,35.30
2022-12-29T19:37:52.908Z,32.87
2022-12-29T19:40:55.871Z,31.77
2022-12-29T19:43:59.345Z,37.03
2022-12-29T19:47:02.349Z,37.97
2022-12-29T19:50:07.152Z,35.83
2022-12-29T19:53:11.138Z,38.47
2022-12-29T19:56:17.222Z,36.35
2022-12-29T19:59:20.319Z,34.33
2022-12-29T20:02:26.959Z,33.38
2022-12-29T20:05:30.707Z,33.13
2022-12-29T20:08:35.356Z,34.38
2022-12-29T20:11:38.817Z,42.65
2022-12-29T20:14:43.271Z,43.67
2022-12-29T20:18:12.403Z,40.15
2022-12-29T20:21:15.012Z,41.22
2022-12-29T20:24:18.649Z,40.55
2022-12-29T20:27:21.545Z,41.28
2022-12-29T20:30:25.312Z,35.47
2022-12-29T20:33:29.761Z,34.27
2022-12-29T20:36:35.901Z,31.42
2022-12-29T20:39:40.766Z,32.70
2022-12-29T20:42:44.006Z,34.45
2022-12-29T20:45:47.167Z,35.00
2022-12-29T20:48:51.167Z,31.65
2022-12-29T20:52:09.893Z,30.15
2022-12-29T20:55:13.188Z,32.45
2022-12-29T20:58:24.395Z,31.77
2022-12-29T21:01:28.367Z,34.47
2022-12-29T21:04:50.253Z,32.00
2022-12-29T21:07:55.503Z,35.17
2022-12-29T21:10:59.032Z,35.00
2022-12-29T21:14:04.019Z,31.08
2022-12-29T21:17:07.347Z,30.33
2022-12-29T21:20:20.351Z,29.35
2022-12-29T21:23:23.375Z,26.95
2022-12-29T21:26:26.514Z,28.77
2022-12-29T21:29:29.625Z,31.40
2022-12-29T21:32:32.953Z,32.13
2022-12-29T21:35:39.156Z,29.42
2022-12-29T21:38:42.769Z,27.87
2022-12-29T21:41:45.957Z,24.80
2022-12-29T21:45:07.806Z,28.08
2022-12-29T21:48:24.387Z,27.95
2022-12-29T21:51:46.458Z,26.53
2022-12-29T21:55:01.010Z,27.17
2022-12-29T21:58:24.474Z,25.37
2022-12-29T22:01:48.248Z,27.02
2022-12-29T22:05:10.215Z,27.45
2022-12-29T22:08:31.905Z,25.57
2022-12-29T22:11:53.631Z,25.00
2022-12-29T22:14:56.609Z,25.30
2022-12-29T22:18:01.408Z,26.85
2022-12-29T22:21:06.617Z,24.27
2022-12-29T22:24:10.317Z,25.25
2022-12-29T22:27:13.455Z,25.33
2022-12-29T22:30:17.578Z,23.87
2022-12-29T22:33:20.493Z,25.63
2022-12-29T22:36:24.837Z,25.75
2022-12-29T22:39:27.696Z,26.70
2022-12-29T22:42:30.991Z,25.23
2022-12-29T22:45:34.050Z,26.30
2022-12-29T22:48:37.720Z,27.40
2022-12-29T22:51:40.571Z,27.75
2022-12-29T22:54:43.838Z,27.02
2022-12-29T22:57:46.720Z,26.90
2022-12-29T23:00:49.777Z,27.07
2022-12-29T23:03:52.769Z,27.13
2022-12-29T23:06:55.928Z,27.27
2022-12-29T23:09:58.853Z,27.37
2022-12-29T23:13:04.477Z,26.40
2022-12-29T23:16:07.474Z,26.90
2022-12-29T23:19:11.992Z,26.55
2022-12-29T23:22:15.143Z,30.42
2022-12-29T23:25:18.177Z,30.70
2022-12-29T23:28:20.968Z,28.42
2022-12-29T23:31:25.545Z,30.02
2022-12-29T23:34:28.316Z,29.58
2022-12-29T23:37:32.063Z,28.92
2022-12-29T23:40:35.099Z,29.90
2022-12-29T23:43:38.698Z,29.67
2022-12-29T23:46:41.633Z,27.13
2022-12-29T23:49:44.606Z,26.83
2022-12-29T23:52:47.769Z,28.02
2022-12-29T23:55:55.095Z,28.48
2022-12-29T23:58:58.054Z,27.62
